OAL334 LGKF-LGKR
Flight info
| Callsign | OAL334 |
|---|---|
| Flight time | 0h 25m |
| Altitude | 14000 |
| Route | APSOG |
| Aircraft | DH8D/M-S/S |
Departure
| Time | 2026-04-27 19:35 |
|---|---|
| Airport | Kefallinia Airport (LGKF) |
Arrival
| Time | 2026-04-27 20:01 |
|---|---|
| Airport | Corfu Ioannis Kapodistrias International Airport (LGKR) |
| Time | Latitude | Longitude | Altitude | Speed | Heading |
|---|---|---|---|---|---|
| 2026-04-27 19:10 | 38.11921 | 20.50336 | 68 ft | 0 kts | 327° |
| 2026-04-27 19:30 | 38.11923 | 20.50334 | 68 ft | 2 kts | 324° |
| 2026-04-27 19:30 | 38.11911 | 20.50310 | 68 ft | 6 kts | 198° |
| 2026-04-27 19:30 | 38.11848 | 20.50344 | 68 ft | 13 kts | 149° |
| 2026-04-27 19:31 | 38.11797 | 20.50359 | 68 ft | 9 kts | 191° |
| 2026-04-27 19:31 | 38.11774 | 20.50345 | 68 ft | 0 kts | 209° |
| 2026-04-27 19:31 | 38.11739 | 20.50322 | 68 ft | 13 kts | 199° |
| 2026-04-27 19:31 | 38.11676 | 20.50373 | 68 ft | 4 kts | 169° |
| 2026-04-27 19:32 | 38.11622 | 20.50385 | 68 ft | 15 kts | 152° |
| 2026-04-27 19:32 | 38.11503 | 20.50473 | 68 ft | 23 kts | 143° |
| 2026-04-27 19:32 | 38.11368 | 20.50594 | 68 ft | 23 kts | 146° |
| 2026-04-27 19:32 | 38.11286 | 20.50665 | 68 ft | 8 kts | 146° |
| 2026-04-27 19:33 | 38.11211 | 20.50729 | 68 ft | 18 kts | 144° |
| 2026-04-27 19:33 | 38.11172 | 20.50773 | 68 ft | 8 kts | 131° |
| 2026-04-27 19:33 | 38.11133 | 20.50824 | 68 ft | 7 kts | 204° |
| 2026-04-27 19:33 | 38.11150 | 20.50785 | 68 ft | 2 kts | 1° |
| 2026-04-27 19:34 | 38.11172 | 20.50767 | 68 ft | 2 kts | 315° |
| 2026-04-27 19:34 | 38.11178 | 20.50761 | 68 ft | 0 kts | 320° |
| 2026-04-27 19:34 | 38.11176 | 20.50762 | 68 ft | 2 kts | 320° |
| 2026-04-27 19:34 | 38.11207 | 20.50730 | 68 ft | 12 kts | 320° |
| 2026-04-27 19:35 | 38.11377 | 20.50567 | 68 ft | 60 kts | 327° |
| 2026-04-27 19:35 | 38.11953 | 20.50074 | 71 ft | 137 kts | 323° |
| 2026-04-27 19:35 | 38.12771 | 20.49289 | 711 ft | 150 kts | 316° |
| 2026-04-27 19:35 | 38.13520 | 20.48297 | 1449 ft | 165 kts | 309° |
| 2026-04-27 19:36 | 38.14249 | 20.47137 | 1861 ft | 182 kts | 303° |
| 2026-04-27 19:36 | 38.15062 | 20.45816 | 1942 ft | 202 kts | 315° |
| 2026-04-27 19:36 | 38.16248 | 20.44811 | 1884 ft | 211 kts | 334° |
| 2026-04-27 19:36 | 38.17576 | 20.44126 | 2162 ft | 202 kts | 338° |
| 2026-04-27 19:37 | 38.18832 | 20.43422 | 2287 ft | 206 kts | 332° |
| 2026-04-27 19:37 | 38.20073 | 20.42507 | 2314 ft | 211 kts | 327° |
| 2026-04-27 19:37 | 38.21298 | 20.41476 | 2494 ft | 215 kts | 324° |
| 2026-04-27 19:37 | 38.22544 | 20.40388 | 2868 ft | 216 kts | 324° |
| 2026-04-27 19:38 | 38.23732 | 20.39353 | 3264 ft | 215 kts | 324° |
| 2026-04-27 19:38 | 38.24940 | 20.38307 | 3731 ft | 211 kts | 324° |
| 2026-04-27 19:38 | 38.26127 | 20.37284 | 4266 ft | 205 kts | 324° |
| 2026-04-27 19:38 | 38.27274 | 20.36297 | 4799 ft | 199 kts | 323° |
| 2026-04-27 19:39 | 38.28402 | 20.35330 | 5334 ft | 194 kts | 323° |
| 2026-04-27 19:39 | 38.29489 | 20.34384 | 5864 ft | 189 kts | 322° |
| 2026-04-27 19:39 | 38.30567 | 20.33430 | 6401 ft | 186 kts | 322° |
| 2026-04-27 19:39 | 38.31790 | 20.32794 | 6936 ft | 197 kts | 350° |
| 2026-04-27 19:40 | 38.33157 | 20.33016 | 7502 ft | 205 kts | 19° |
| 2026-04-27 19:40 | 38.34450 | 20.33821 | 8073 ft | 212 kts | 28° |
| 2026-04-27 19:40 | 38.35808 | 20.34449 | 8614 ft | 218 kts | 9° |
| 2026-04-27 19:40 | 38.37343 | 20.34451 | 9172 ft | 223 kts | 352° |
| 2026-04-27 19:41 | 38.38877 | 20.34123 | 9717 ft | 227 kts | 348° |
| 2026-04-27 19:41 | 38.40450 | 20.33834 | 10269 ft | 229 kts | 353° |
| 2026-04-27 19:41 | 38.42021 | 20.33684 | 10811 ft | 231 kts | 356° |
| 2026-04-27 19:41 | 38.43608 | 20.33595 | 11359 ft | 233 kts | 356° |
| 2026-04-27 19:42 | 38.45225 | 20.33513 | 11979 ft | 231 kts | 356° |
| 2026-04-27 19:42 | 38.46821 | 20.33424 | 12596 ft | 231 kts | 355° |
| 2026-04-27 19:42 | 38.48387 | 20.33339 | 13205 ft | 230 kts | 355° |
| 2026-04-27 19:42 | 38.49976 | 20.33267 | 13776 ft | 235 kts | 355° |
| 2026-04-27 19:43 | 38.51650 | 20.33197 | 13974 ft | 255 kts | 355° |
| 2026-04-27 19:43 | 38.53481 | 20.33123 | 14025 ft | 277 kts | 355° |
| 2026-04-27 19:43 | 38.55472 | 20.33041 | 14014 ft | 297 kts | 355° |
| 2026-04-27 19:43 | 38.57583 | 20.32946 | 14006 ft | 312 kts | 355° |
| 2026-04-27 19:44 | 38.59771 | 20.32836 | 13997 ft | 323 kts | 355° |
| 2026-04-27 19:44 | 38.62012 | 20.32719 | 13992 ft | 323 kts | 355° |
| 2026-04-27 19:44 | 38.64236 | 20.32597 | 13991 ft | 323 kts | 355° |
| 2026-04-27 19:44 | 38.66475 | 20.32468 | 13994 ft | 322 kts | 355° |
| 2026-04-27 19:45 | 38.68712 | 20.32335 | 13993 ft | 322 kts | 355° |
| 2026-04-27 19:45 | 38.70945 | 20.32203 | 13992 ft | 322 kts | 355° |
| 2026-04-27 19:45 | 38.73148 | 20.32073 | 13995 ft | 322 kts | 355° |
| 2026-04-27 19:45 | 38.75371 | 20.31942 | 13993 ft | 322 kts | 355° |
| 2026-04-27 19:46 | 38.77607 | 20.31812 | 13993 ft | 322 kts | 355° |
| 2026-04-27 19:46 | 38.79833 | 20.31687 | 13995 ft | 322 kts | 355° |
| 2026-04-27 19:46 | 38.82059 | 20.31559 | 13992 ft | 322 kts | 355° |
| 2026-04-27 19:46 | 38.84295 | 20.31431 | 13994 ft | 322 kts | 355° |
| 2026-04-27 19:47 | 38.86525 | 20.31307 | 13994 ft | 322 kts | 355° |
| 2026-04-27 19:47 | 38.88755 | 20.31186 | 13992 ft | 322 kts | 355° |
| 2026-04-27 19:47 | 38.90988 | 20.31065 | 13995 ft | 321 kts | 355° |
| 2026-04-27 19:47 | 38.93219 | 20.30944 | 13994 ft | 321 kts | 355° |
| 2026-04-27 19:48 | 38.95448 | 20.30822 | 13992 ft | 321 kts | 355° |
| 2026-04-27 19:48 | 38.97676 | 20.30700 | 13995 ft | 321 kts | 355° |
| 2026-04-27 19:48 | 38.99871 | 20.30580 | 13993 ft | 321 kts | 355° |
| 2026-04-27 19:48 | 39.02032 | 20.30390 | 13962 ft | 317 kts | 349° |
| 2026-04-27 19:49 | 39.03971 | 20.29395 | 13971 ft | 300 kts | 325° |
| 2026-04-27 19:49 | 39.05468 | 20.27745 | 13972 ft | 285 kts | 315° |
| 2026-04-27 19:49 | 39.06746 | 20.25977 | 13957 ft | 266 kts | 304° |
| 2026-04-27 19:49 | 39.07507 | 20.23941 | 13827 ft | 255 kts | 288° |
| 2026-04-27 19:50 | 39.08071 | 20.21793 | 13177 ft | 267 kts | 292° |
| 2026-04-27 19:50 | 39.08682 | 20.20406 | 12710 ft | 274 kts | 306° |
| 2026-04-27 19:50 | 39.10129 | 20.18818 | 12018 ft | 283 kts | 330° |
| 2026-04-27 19:50 | 39.11977 | 20.17973 | 11338 ft | 290 kts | 346° |
| 2026-04-27 19:51 | 39.13950 | 20.17506 | 10643 ft | 289 kts | 349° |
| 2026-04-27 19:51 | 39.15866 | 20.17013 | 9955 ft | 284 kts | 345° |
| 2026-04-27 19:51 | 39.17712 | 20.16337 | 9262 ft | 275 kts | 341° |
| 2026-04-27 19:51 | 39.19457 | 20.15603 | 8577 ft | 268 kts | 341° |
| 2026-04-27 19:52 | 39.21190 | 20.14882 | 7881 ft | 262 kts | 342° |
| 2026-04-27 19:52 | 39.22871 | 20.14250 | 7198 ft | 257 kts | 344° |
| 2026-04-27 19:52 | 39.24562 | 20.13686 | 6505 ft | 253 kts | 345° |
| 2026-04-27 19:52 | 39.26227 | 20.13177 | 5816 ft | 249 kts | 346° |
| 2026-04-27 19:53 | 39.29517 | 20.12202 | 4430 ft | 243 kts | 345° |
| 2026-04-27 19:53 | 39.31118 | 20.11710 | 3773 ft | 239 kts | 345° |
| 2026-04-27 19:53 | 39.32627 | 20.11211 | 3532 ft | 216 kts | 344° |
| 2026-04-27 19:54 | 39.33940 | 20.10757 | 3445 ft | 190 kts | 344° |
| 2026-04-27 19:54 | 39.35092 | 20.10359 | 3403 ft | 161 kts | 344° |
| 2026-04-27 19:54 | 39.36075 | 20.10033 | 3336 ft | 131 kts | 344° |
| 2026-04-27 19:54 | 39.36985 | 20.09732 | 3185 ft | 148 kts | 341° |
| 2026-04-27 19:55 | 39.37936 | 20.09229 | 3883 ft | 161 kts | 332° |
| 2026-04-27 19:55 | 39.39136 | 20.08430 | 3404 ft | 215 kts | 330° |
| 2026-04-27 19:55 | 39.40470 | 20.07470 | 3110 ft | 228 kts | 328° |
| 2026-04-27 19:55 | 39.41804 | 20.06434 | 2762 ft | 224 kts | 329° |
| 2026-04-27 19:56 | 39.43128 | 20.05512 | 2485 ft | 214 kts | 336° |
| 2026-04-27 19:56 | 39.44360 | 20.04851 | 2807 ft | 173 kts | 336° |
| 2026-04-27 19:56 | 39.45346 | 20.04228 | 3040 ft | 139 kts | 329° |
| 2026-04-27 19:56 | 39.46187 | 20.03549 | 3235 ft | 148 kts | 325° |
| 2026-04-27 19:57 | 39.47087 | 20.02774 | 3263 ft | 164 kts | 325° |
| 2026-04-27 19:57 | 39.48076 | 20.01956 | 3247 ft | 177 kts | 326° |
| 2026-04-27 19:57 | 39.49151 | 20.01101 | 3217 ft | 184 kts | 327° |
| 2026-04-27 19:57 | 39.50226 | 20.00257 | 3079 ft | 180 kts | 328° |
| 2026-04-27 19:58 | 39.51256 | 19.99424 | 2832 ft | 179 kts | 327° |
| 2026-04-27 19:58 | 39.52276 | 19.98578 | 2622 ft | 177 kts | 327° |
| 2026-04-27 19:58 | 39.53291 | 19.97722 | 2400 ft | 175 kts | 326° |
| 2026-04-27 19:58 | 39.54256 | 19.96885 | 2204 ft | 170 kts | 321° |
| 2026-04-27 19:59 | 39.54890 | 19.95637 | 1993 ft | 167 kts | 289° |
| 2026-04-27 19:59 | 39.55218 | 19.94275 | 1869 ft | 154 kts | 287° |
| 2026-04-27 19:59 | 39.55636 | 19.93052 | 1743 ft | 142 kts | 309° |
| 2026-04-27 19:59 | 39.56365 | 19.92202 | 1292 ft | 142 kts | 327° |
| 2026-04-27 20:00 | 39.57285 | 19.91763 | 779 ft | 143 kts | 351° |
| 2026-04-27 20:00 | 39.58278 | 19.91632 | 355 ft | 145 kts | 355° |
| 2026-04-27 20:00 | 39.59265 | 19.91447 | 59 ft | 139 kts | 348° |
| 2026-04-27 20:00 | 39.60084 | 19.91230 | 20 ft | 96 kts | 352° |
| 2026-04-27 20:01 | 39.60464 | 19.91130 | 20 ft | 3 kts | 351° |
| 2026-04-27 20:01 | 39.60468 | 19.91130 | 20 ft | 3 kts | 352° |
| 2026-04-27 20:01 | 39.60515 | 19.91148 | 20 ft | 11 kts | 28° |
| 2026-04-27 20:01 | 39.60569 | 19.91193 | 20 ft | 0 kts | 28° |
| 2026-04-27 20:02 | 39.60568 | 19.91192 | 20 ft | 0 kts | 28° |
| 2026-04-27 20:03 | 39.60574 | 19.91197 | 20 ft | 6 kts | 27° |
| 2026-04-27 20:03 | 39.60633 | 19.91227 | 20 ft | 3 kts | 38° |
| 2026-04-27 20:03 | 39.60631 | 19.91234 | 20 ft | 4 kts | 98° |
| 2026-04-27 20:04 | 39.60617 | 19.91281 | 20 ft | 5 kts | 52° |
| 2026-04-27 20:04 | 39.60636 | 19.91282 | 20 ft | 0 kts | 349° |